ADDS METAR Data INFO
IDs: Format: Raw Decoded Include TAF

Data at: 2239 UTC 11 Dec 2017

KPMV 112235Z AUTO 33027G36KT 10SM OVC032 06/00 A3010 RMK AO2 T00600000
KPMV 112215Z AUTO 32026G33KT 10SM BKN028 OVC034 06/00 A3008 RMK AO2 T00620000
KPMV 112155Z AUTO 32021G33KT 7SM OVC028 07/01 A3007 RMK AO2 T00650006
KPMV 112135Z AUTO 33029G38KT 5SM HZ OVC030 07/01 A3005 RMK AO2 T00690006
KPMV 112115Z AUTO 32022G27KT 10SM OVC032 07/01 A3004 RMK AO2 T00720006
KPMV 112055Z AUTO 33021G30KT 10SM OVC032 08/01 A3004 RMK AO2 T00750006
KPMV 112035Z AUTO 32019G32KT 10SM OVC034 08/01 A3003 RMK AO2 T00760005
KPMV 112015Z AUTO 32025G33KT 10SM OVC034 08/01 A3002 RMK AO2 T00800006
KPMV 111955Z AUTO 31022G31KT 10SM OVC036 08/01 A3001 RMK AO2 T00810005
KPMV 111935Z AUTO 32024G31KT 10SM OVC036 08/01 A2999 RMK AO2 T00820005
KPMV 111915Z AUTO 31028G35KT 10SM OVC038 09/00 A2999 RMK AO2 T00850002
KPMV 111855Z AUTO 31024G39KT 7SM OVC040 09/00 A2999 RMK AO2 T00860001
KPMV 111835Z AUTO 31027G35KT 10SM OVC038 09/00 A2998 RMK AO2 T00870000
KPMV 111815Z AUTO 31027G39KT 10SM BKN040 OVC046 09/00 A2998 RMK AO2 T00850000
KPMV 111755Z AUTO 31032G40KT 7SM OVC043 09/00 A2997 RMK AO2 T00901001 10096 20040
KPMV 111735Z AUTO 31028G39KT 7SM OVC043 09/00 A2998 RMK AO2 T00911003
KPMV 111715Z AUTO 32031G41KT 3SM HZ OVC043 09/00 A2997 RMK AO2 T00911002
KPMV 111655Z AUTO 31027G39KT 7SM BKN043 09/00 A2997 RMK AO2 T00921005
KPMV 111635Z AUTO 32029G42KT 4SM HZ SCT045 09/M01 A2996 RMK AO2 T00921009
KPMV 111615Z AUTO 31025G35KT 5SM HZ SCT001 09/M01 A2997 RMK AO2 T00901013
KPMV 111555Z AUTO 31020G32KT 3SM HZ SCT001 09/M03 A2996 RMK AO2 T00891026
KPMV 111535Z AUTO 31022G31KT 4SM HZ SCT001 09/M04 A2996 RMK AO2 T00871039
KPMV 111515Z AUTO 31022G27KT 4SM HZ CLR 08/M06 A2995 RMK AO2 T00761056
KPMV 111455Z AUTO 30014G19KT 10SM CLR 07/M06 A2995 RMK AO2 T00681060
KPMV 111435Z AUTO 30012G17KT 7SM CLR 06/M07 A2994 RMK AO2 T00581066
KPMV 111415Z AUTO 31012KT 10SM CLR 06/M07 A2994 RMK AO2 T00601070
KPMV 111355Z AUTO 30014KT 10SM CLR 07/M07 A2993 RMK AO2 T00701069
KPMV 111335Z AUTO 30018G23KT 10SM CLR 08/M07 A2992 RMK AO2 T00781069
KPMV 111315Z AUTO 29014G23KT 10SM CLR 07/M07 A2991 RMK AO2 T00691073
KPMV 111255Z AUTO 28014G19KT 10SM CLR 06/M07 A2991 RMK AO2 T00571075
KPMV 111235Z AUTO 27012KT 10SM CLR 04/M08 A2991 RMK AO2 T00431076
KPMV 111215Z AUTO 27012KT 10SM CLR 05/M08 A2991 RMK AO2 T00451080
KPMV 111155Z AUTO 26011G16KT 10SM CLR 04/M08 A2991 RMK AO2 T00401076 10058 20016
KPMV 111135Z AUTO 25011G15KT 10SM CLR 04/M08 A2991 RMK AO2 T00421076
KPMV 111115Z AUTO 26011KT 10SM CLR 04/M08 A2992 RMK AO2 T00421076
KPMV 111055Z AUTO 27010KT 10SM CLR 05/M07 A2993 RMK AO2 T00451075
KPMV 111035Z AUTO 29007KT 10SM CLR 05/M08 A2993 RMK AO2 T00461076
KPMV 111015Z AUTO 28007KT 10SM CLR 06/M07 A2994 RMK AO2 T00551075
KPMV 110955Z AUTO 25007KT 10SM CLR 06/M07 A2994 RMK AO2 T00571075
KPMV 110935Z AUTO 26006KT 10SM CLR 05/M07 A2995 RMK AO2 T00511075
KPMV 110915Z AUTO 26006KT 10SM CLR 05/M07 A2997 RMK AO2 T00501071
KPMV 110855Z AUTO 26005KT 10SM CLR 06/M07 A2997 RMK AO2 T00581071
KPMV 110835Z AUTO 24007KT 10SM CLR 05/M07 A2997 RMK AO2 T00501066
KPMV 110815Z AUTO 25007KT 10SM CLR 05/M07 A2998 RMK AO2 T00501067
KPMV 110755Z AUTO 25011KT 10SM CLR 05/M07 A2998 RMK AO2 T00521069
KPMV 110735Z AUTO 24006KT 10SM CLR 04/M07 A2999 RMK AO2 T00441066
KPMV 110715Z AUTO 23006KT 10SM CLR 04/M06 A3000 RMK AO2 T00421065
KPMV 110655Z AUTO 19005KT 10SM CLR 05/M06 A3000 RMK AO2 T00461064
KPMV 110635Z AUTO 22005KT 10SM CLR 05/M06 A3001 RMK AO2 T00451061
KPMV 110615Z AUTO 21007KT 10SM CLR 04/M06 A3001 RMK AO2 T00381061
KPMV 110555Z AUTO 21005KT 10SM CLR 04/M06 A3002 RMK AO2 T00381065 10081 20021 401200000
KPMV 110535Z AUTO 21007KT 10SM CLR 03/M06 A3003 RMK AO2 T00281061
KPMV 110515Z AUTO 20006KT 10SM CLR 03/M06 A3004 RMK AO2 T00251061
KPMV 110455Z AUTO 19006KT 10SM CLR 03/M06 A3005 RMK AO2 T00301061
KPMV 110435Z AUTO 22006KT 10SM CLR 05/M06 A3006 RMK AO2 T00511061
KPMV 110415Z AUTO 23006KT 10SM CLR 07/M06 A3006 RMK AO2 T00651065
KPMV 110355Z AUTO 23007KT 10SM CLR 05/M06 A3007 RMK AO2 T00501061
KPMV 110335Z AUTO 24006KT 10SM CLR 05/M06 A3008 RMK AO2 T00531061
KPMV 110315Z AUTO 24004KT 10SM CLR 06/M06 A3008 RMK AO2 T00561061
KPMV 110255Z AUTO 25004KT 10SM CLR 06/M06 A3009 RMK AO2 T00611060
KPMV 110235Z AUTO 26004KT 10SM CLR 07/M06 A3009 RMK AO2 T00691061
KPMV 110215Z AUTO 24005KT 10SM CLR 06/M06 A3009 RMK AO2 T00631060
KPMV 110155Z AUTO 24005KT 10SM CLR 07/M06 A3010 RMK AO2 T00651058
KPMV 110135Z AUTO 25004KT 10SM CLR 06/M06 A3009 RMK AO2 T00631056
KPMV 110115Z AUTO 25003KT 10SM CLR 07/M05 A3010 RMK AO2 T00661055
KPMV 110055Z AUTO 00000KT 10SM CLR 08/M05 A3010 RMK AO2 T00761055
KPMV 110035Z AUTO 27004KT 10SM CLR 07/M05 A3011 RMK AO2 T00691052
KPMV 110015Z AUTO 29004KT 10SM CLR 07/M05 A3011 RMK AO2 T00701051
KPMV 102355Z AUTO 28004KT 10SM CLR 08/M05 A3011 RMK AO2 T00781051 10120 20075
KPMV 102335Z AUTO 27004KT 10SM CLR 09/M05 A3011 RMK AO2 T00861050
KPMV 102315Z AUTO 24003KT 10SM CLR 09/M04 A3011 RMK AO2 T00921045
KPMV 102255Z AUTO 00000KT 10SM CLR 10/M04 A3011 RMK AO2 T01011041
KPMV 102235Z AUTO 31004KT 10SM CLR 10/M04 A3011 RMK AO2 T01011040
KPMV 102215Z AUTO 32005KT 10SM CLR 11/M04 A3011 RMK AO2 T01121036
KPMV 102155Z AUTO 31008KT 5SM HZ CLR 12/M04 A3010 RMK AO2 T01171036
KPMV 102135Z AUTO 31008KT 10SM CLR 12/M03 A3010 RMK AO2 T01201035
KPMV 102115Z AUTO 31010KT 10SM CLR 12/M03 A3010 RMK AO2 T01201034
KPMV 102055Z AUTO 31011G16KT 7SM CLR 12/M03 A3010 RMK AO2 T01201033
KPMV 102035Z AUTO 30011G17KT 10SM CLR 12/M03 A3009 RMK AO2 T01161030
KPMV 102015Z AUTO 32013KT 10SM CLR 11/M03 A3010 RMK AO2 T01141029
KPMV 101955Z AUTO 30013G17KT 10SM CLR 11/M03 A3009 RMK AO2 T01101030
KPMV 101935Z AUTO 31013KT 10SM CLR 10/M03 A3009 RMK AO2 T01021032
KPMV 101915Z AUTO 30013KT 10SM CLR 11/M03 A3009 RMK AO2 T01051031
KPMV 101855Z AUTO 29012G18KT 10SM CLR 10/M03 A3009 RMK AO2 T01041031
KPMV 101835Z AUTO 31012G19KT 10SM CLR 10/M03 A3010 RMK AO2 T00971033
KPMV 101815Z AUTO 31014KT 7SM SCT002 10/M03 A3010 RMK AO2 T01001031
KPMV 101755Z AUTO 31012KT 10SM CLR 09/M03 A3010 RMK AO2 T00901030 10090 20001
KPMV 101735Z AUTO 32012G19KT 10SM SCT002 08/M03 A3010 RMK AO2 T00821031
KPMV 101715Z AUTO 32014KT 7SM CLR 08/M03 A3011 RMK AO2 T00761032
KPMV 101655Z AUTO 31013KT 10SM CLR 07/M03 A3011 RMK AO2 T00711032
KPMV 101635Z AUTO 31010G15KT 10SM CLR 07/M03 A3011 RMK AO2 T00671032
KPMV 101615Z AUTO 30012KT 10SM CLR 06/M03 A3011 RMK AO2 T00621031
KPMV 101555Z AUTO 30012KT 10SM CLR 06/M03 A3010 RMK AO2 T00571031
KPMV 101535Z AUTO 30011G14KT 7SM CLR 05/M03 A3010 RMK AO2 T00521031
KPMV 101515Z AUTO 30009KT 10SM CLR 05/M03 A3010 RMK AO2 T00451033
KPMV 101455Z AUTO 30009KT 10SM CLR 04/M03 A3009 RMK AO2 T00351035
KPMV 101435Z AUTO 30008KT 10SM CLR 03/M04 A3008 RMK AO2 T00251040
KPMV 101415Z AUTO 30007KT 10SM CLR 02/M04 A3008 RMK AO2 T00221040
KPMV 101355Z AUTO 30007KT 10SM CLR 02/M04 A3007 RMK AO2 T00201043
KPMV 101335Z AUTO 30008KT 10SM CLR 01/M05 A3006 RMK AO2 T00111047
KPMV 101315Z AUTO 27007KT 10SM CLR 00/M05 A3005 RMK AO2 T00011052
KPMV 101255Z AUTO 28008KT 10SM CLR 01/M05 A3004 RMK AO2 T00051050
KPMV 101235Z AUTO 28007KT 10SM CLR 01/M05 A3004 RMK AO2 T00091050
KPMV 101215Z AUTO 29007KT 10SM CLR 01/M05 A3003 RMK AO2 T00131050
KPMV 101155Z AUTO 29009KT 10SM CLR 02/M05 A3003 RMK AO2 T00171047 10017 20000
KPMV 101135Z AUTO 28009KT 10SM CLR 02/M05 A3002 RMK AO2 T00171048
KPMV 101115Z AUTO 28008KT 10SM CLR 00/M05 A3002 RMK AO2 T00011054
KPMV 101055Z AUTO 28007KT 10SM CLR 00/M05 A3002 RMK AO2 T00001055